createdAt,value
2018-07-31T00:01:54.007Z,18.60
2018-07-31T00:04:22.431Z,18.60
2018-07-31T00:06:50.856Z,18.60
2018-07-31T00:09:19.248Z,18.70
2018-07-31T00:11:47.675Z,18.70
2018-07-31T00:14:16.079Z,18.70
2018-07-31T00:16:44.511Z,18.80
2018-07-31T00:19:12.932Z,18.80
2018-07-31T00:21:41.348Z,18.80
2018-07-31T00:24:09.740Z,18.90
2018-07-31T00:26:38.172Z,18.90
2018-07-31T00:29:06.583Z,18.90
2018-07-31T00:31:34.991Z,18.90
2018-07-31T00:34:03.387Z,18.70
2018-07-31T00:36:31.950Z,18.50
2018-07-31T00:39:00.347Z,18.50
2018-07-31T00:41:28.759Z,18.40
2018-07-31T00:43:57.196Z,18.30
2018-07-31T00:46:25.627Z,18.30
2018-07-31T00:48:54.003Z,18.30
2018-07-31T00:51:22.427Z,18.40
2018-07-31T00:53:50.809Z,18.40
2018-07-31T00:56:19.227Z,18.40
2018-07-31T00:58:47.631Z,18.40
2018-07-31T01:01:16.031Z,18.30
2018-07-31T01:03:44.441Z,18.10
2018-07-31T01:06:12.825Z,18.00
2018-07-31T01:08:41.240Z,17.90
2018-07-31T01:11:09.682Z,17.90
2018-07-31T01:13:38.116Z,18.00
2018-07-31T01:16:06.539Z,18.00
2018-07-31T01:18:34.959Z,18.10
2018-07-31T01:21:03.400Z,18.00
2018-07-31T01:23:31.831Z,18.00
2018-07-31T01:26:00.244Z,18.00
2018-07-31T01:28:28.668Z,17.90
2018-07-31T01:30:57.071Z,17.90
2018-07-31T01:33:25.516Z,17.90
2018-07-31T01:35:53.942Z,18.00
2018-07-31T01:38:22.363Z,18.00
2018-07-31T01:40:50.764Z,18.10
2018-07-31T01:43:19.203Z,18.10
2018-07-31T01:45:47.641Z,18.10
2018-07-31T01:48:16.109Z,18.10
2018-07-31T01:50:44.559Z,18.10
2018-07-31T01:53:13.001Z,18.10
2018-07-31T01:55:41.421Z,18.00
2018-07-31T01:58:09.831Z,17.90
2018-07-31T02:00:38.263Z,17.80
2018-07-31T02:03:06.912Z,17.60
2018-07-31T02:05:35.344Z,17.40
2018-07-31T02:08:03.892Z,17.30
2018-07-31T02:10:32.376Z,17.30
2018-07-31T02:13:00.796Z,17.30
2018-07-31T02:15:29.235Z,17.40
2018-07-31T02:17:57.627Z,17.40
2018-07-31T02:20:26.067Z,17.50
2018-07-31T02:22:54.479Z,17.50
2018-07-31T02:25:22.979Z,17.50
2018-07-31T02:27:51.477Z,17.60
2018-07-31T02:30:20.747Z,17.50
2018-07-31T02:32:50.072Z,17.30
2018-07-31T02:35:18.587Z,17.10
2018-07-31T02:37:47.008Z,17.00
2018-07-31T02:40:15.434Z,17.00
2018-07-31T02:42:43.861Z,17.00
2018-07-31T02:45:13.923Z,17.00
2018-07-31T02:47:43.205Z,17.00
2018-07-31T02:50:11.675Z,17.00
2018-07-31T02:52:40.471Z,17.00
2018-07-31T02:55:10.117Z,17.10
2018-07-31T02:57:39.078Z,17.10
2018-07-31T03:00:08.611Z,17.10
2018-07-31T03:02:37.088Z,17.00
2018-07-31T03:05:06.995Z,17.00
2018-07-31T03:07:35.483Z,17.00
2018-07-31T03:10:04.312Z,17.10
2018-07-31T03:12:32.745Z,17.10
2018-07-31T03:15:01.160Z,17.10
2018-07-31T03:17:29.601Z,17.10
2018-07-31T03:19:57.990Z,17.00
2018-07-31T03:22:26.411Z,16.80
2018-07-31T03:24:54.821Z,16.80
2018-07-31T03:27:23.272Z,16.70
2018-07-31T03:29:51.700Z,16.60
2018-07-31T03:32:20.136Z,16.60
2018-07-31T03:34:48.631Z,16.60
2018-07-31T03:37:17.080Z,16.70
2018-07-31T03:39:45.477Z,16.70
2018-07-31T03:42:20.598Z,16.70
2018-07-31T03:44:49.029Z,16.70
2018-07-31T03:47:17.451Z,16.70
2018-07-31T03:49:45.855Z,16.80
2018-07-31T03:52:14.302Z,16.80
2018-07-31T03:54:42.715Z,16.80
2018-07-31T03:57:11.140Z,16.70
2018-07-31T03:59:39.535Z,16.70
2018-07-31T04:02:07.971Z,16.80
2018-07-31T04:04:36.490Z,16.80
2018-07-31T04:07:05.000Z,16.80
2018-07-31T04:09:33.407Z,16.70
2018-07-31T04:12:01.845Z,16.60
2018-07-31T04:14:30.303Z,16.50
2018-07-31T04:16:58.722Z,16.50
2018-07-31T04:19:27.163Z,16.50
2018-07-31T04:21:55.560Z,16.70
2018-07-31T04:24:24.024Z,16.90
2018-07-31T04:26:52.437Z,17.10
2018-07-31T04:29:20.852Z,17.50
2018-07-31T04:31:49.259Z,17.80
2018-07-31T04:34:17.687Z,18.10
2018-07-31T04:36:46.084Z,18.40
2018-07-31T04:39:14.872Z,18.80
2018-07-31T04:41:43.690Z,19.30
2018-07-31T04:44:12.184Z,19.60
2018-07-31T04:46:40.592Z,20.00
2018-07-31T04:49:09.026Z,20.30
2018-07-31T04:51:37.432Z,20.60
2018-07-31T04:54:06.044Z,20.90
2018-07-31T04:56:34.457Z,21.30
2018-07-31T04:59:02.879Z,22.00
2018-07-31T05:01:31.314Z,22.50
2018-07-31T05:03:59.735Z,23.10
2018-07-31T05:06:28.146Z,23.80
2018-07-31T05:08:56.624Z,24.40
2018-07-31T05:11:25.053Z,24.90
2018-07-31T05:13:53.480Z,25.60
2018-07-31T05:16:21.928Z,26.50
2018-07-31T05:18:50.331Z,27.60
2018-07-31T05:21:18.766Z,28.20
2018-07-31T05:23:47.184Z,28.80
2018-07-31T05:26:15.605Z,29.40
2018-07-31T05:28:44.012Z,29.70
2018-07-31T05:31:12.456Z,29.90
2018-07-31T05:33:40.888Z,30.10
2018-07-31T05:36:09.323Z,30.10
2018-07-31T05:38:37.771Z,30.20
2018-07-31T05:41:06.251Z,30.30
2018-07-31T05:43:34.673Z,30.80
2018-07-31T05:46:03.119Z,31.40
2018-07-31T05:48:31.533Z,31.80
2018-07-31T05:50:59.952Z,32.10
2018-07-31T05:53:28.378Z,32.30
2018-07-31T05:55:56.804Z,32.50
2018-07-31T06:00:53.354Z,32.90
2018-07-31T06:03:21.779Z,32.80
2018-07-31T06:05:50.192Z,32.70
2018-07-31T06:08:18.703Z,32.60
2018-07-31T06:10:47.166Z,32.60
2018-07-31T06:13:15.597Z,33.10
2018-07-31T06:15:44.239Z,33.40
2018-07-31T06:18:12.668Z,33.80
2018-07-31T06:20:41.120Z,34.10
2018-07-31T06:25:37.682Z,34.80
2018-07-31T06:28:06.376Z,35.20
2018-07-31T06:30:34.803Z,35.40
2018-07-31T06:33:03.248Z,35.50
2018-07-31T06:35:31.657Z,35.70
2018-07-31T06:38:00.108Z,35.60
2018-07-31T06:40:28.565Z,35.50
2018-07-31T06:42:57.004Z,35.40
2018-07-31T06:45:25.445Z,35.40
2018-07-31T06:47:53.868Z,35.70
2018-07-31T06:50:22.326Z,36.10
2018-07-31T06:52:50.747Z,36.10
2018-07-31T06:55:19.217Z,35.50
2018-07-31T06:57:47.624Z,34.90
2018-07-31T07:00:16.056Z,34.70
2018-07-31T07:02:44.466Z,34.60
2018-07-31T07:05:12.983Z,34.50
2018-07-31T07:07:41.400Z,34.40
2018-07-31T07:10:16.200Z,34.50
2018-07-31T07:12:44.660Z,34.40
2018-07-31T07:15:13.121Z,34.50
2018-07-31T07:17:41.772Z,34.70
2018-07-31T07:20:10.292Z,35.10
2018-07-31T07:22:38.805Z,35.40
2018-07-31T07:25:07.196Z,35.50
2018-07-31T07:27:35.864Z,35.50
2018-07-31T07:30:04.916Z,35.30
2018-07-31T07:32:33.351Z,35.10
2018-07-31T07:35:01.797Z,35.00
2018-07-31T07:37:30.223Z,35.00
2018-07-31T07:39:58.689Z,35.00
2018-07-31T07:44:55.233Z,34.90
2018-07-31T07:47:23.651Z,35.00
2018-07-31T07:49:52.079Z,34.90
2018-07-31T07:52:20.535Z,34.90
2018-07-31T07:54:48.936Z,34.70
2018-07-31T07:57:17.367Z,34.70
2018-07-31T08:02:13.963Z,35.30
2018-07-31T08:04:42.372Z,35.60
2018-07-31T08:07:10.791Z,35.80
2018-07-31T08:09:39.249Z,36.00
2018-07-31T08:12:07.736Z,36.10
2018-07-31T08:17:04.331Z,35.90
2018-07-31T08:19:32.731Z,36.10
2018-07-31T08:22:04.118Z,36.40
2018-07-31T08:24:32.582Z,36.80
2018-07-31T08:27:01.036Z,37.10
2018-07-31T08:29:29.556Z,37.60
2018-07-31T08:31:57.992Z,38.00
2018-07-31T08:34:26.444Z,38.30
2018-07-31T08:36:54.900Z,38.20
2018-07-31T08:39:23.316Z,37.90
2018-07-31T08:41:51.731Z,37.60
2018-07-31T08:44:20.170Z,37.30
2018-07-31T08:46:48.584Z,36.90
2018-07-31T08:49:17.012Z,36.90
2018-07-31T08:51:45.439Z,36.90
2018-07-31T08:54:13.895Z,36.70
2018-07-31T08:56:42.319Z,36.60
2018-07-31T08:59:10.740Z,36.50
2018-07-31T09:01:39.224Z,36.60
2018-07-31T09:04:07.700Z,37.10
2018-07-31T09:06:36.155Z,37.70
2018-07-31T09:09:07.407Z,38.30
2018-07-31T09:11:35.821Z,39.00
2018-07-31T09:14:05.228Z,39.50
2018-07-31T09:16:33.619Z,39.70
2018-07-31T09:19:02.028Z,39.90
2018-07-31T09:21:30.422Z,39.70
2018-07-31T09:23:58.860Z,39.70
2018-07-31T09:26:27.292Z,39.80
2018-07-31T09:28:55.701Z,40.10
2018-07-31T09:31:24.100Z,40.10
2018-07-31T09:33:52.527Z,40.20
2018-07-31T09:36:20.904Z,39.90
2018-07-31T09:38:49.304Z,39.70
2018-07-31T09:41:17.716Z,39.70
2018-07-31T09:43:46.106Z,39.90
2018-07-31T09:46:14.575Z,40.40
2018-07-31T09:48:43.232Z,40.40
2018-07-31T09:51:11.639Z,40.10
2018-07-31T09:53:40.066Z,39.90
2018-07-31T09:56:08.516Z,39.80
2018-07-31T09:58:36.905Z,39.60
2018-07-31T10:01:10.756Z,39.50
2018-07-31T10:03:39.196Z,39.50
2018-07-31T10:06:07.601Z,39.80
2018-07-31T10:08:35.991Z,39.80
2018-07-31T10:11:04.432Z,40.00
2018-07-31T10:13:32.821Z,39.90
2018-07-31T10:16:01.331Z,39.90
2018-07-31T10:18:29.708Z,40.00
2018-07-31T10:20:58.123Z,39.90
2018-07-31T10:23:26.513Z,39.70
2018-07-31T10:25:54.907Z,39.70
2018-07-31T10:28:23.296Z,39.20
2018-07-31T10:30:51.791Z,39.20
2018-07-31T10:35:48.341Z,39.40
2018-07-31T10:38:16.793Z,39.20
2018-07-31T10:40:45.200Z,39.10
2018-07-31T10:43:13.640Z,39.00
2018-07-31T10:45:42.091Z,39.00
2018-07-31T10:48:10.520Z,39.50
2018-07-31T10:50:38.925Z,40.00
2018-07-31T10:53:07.348Z,40.20
2018-07-31T10:55:35.749Z,40.50
2018-07-31T10:58:04.225Z,40.50
2018-07-31T11:00:32.731Z,40.70
2018-07-31T11:05:31.268Z,40.60
2018-07-31T11:08:04.053Z,40.30
2018-07-31T11:10:35.102Z,40.00
2018-07-31T11:13:10.924Z,39.80
2018-07-31T11:15:43.136Z,40.10
2018-07-31T11:18:17.655Z,40.40
2018-07-31T11:20:51.204Z,40.30
2018-07-31T11:23:31.217Z,40.40
2018-07-31T11:26:01.903Z,40.20
2018-07-31T11:28:39.883Z,40.30
2018-07-31T11:31:08.345Z,40.40
2018-07-31T11:33:36.776Z,40.30
2018-07-31T11:36:05.206Z,40.40
2018-07-31T11:38:33.747Z,40.50
2018-07-31T11:41:02.084Z,40.50
2018-07-31T11:43:30.527Z,40.60
2018-07-31T11:45:58.966Z,40.80
2018-07-31T11:48:27.419Z,40.90
2018-07-31T11:50:55.875Z,40.80
2018-07-31T11:53:24.315Z,40.70
2018-07-31T11:55:52.751Z,40.50
2018-07-31T11:58:21.191Z,40.30
2018-07-31T12:00:49.625Z,40.50
2018-07-31T12:03:18.068Z,40.50
2018-07-31T12:05:46.493Z,40.20
2018-07-31T12:08:14.932Z,40.40
2018-07-31T12:10:43.502Z,40.40
2018-07-31T12:13:11.925Z,40.60
2018-07-31T12:15:40.340Z,40.80
2018-07-31T12:18:08.720Z,41.10
2018-07-31T12:20:37.155Z,40.90
2018-07-31T12:23:05.746Z,40.50
2018-07-31T12:25:34.239Z,40.50
2018-07-31T12:28:02.635Z,40.60
2018-07-31T12:31:34.464Z,40.60
2018-07-31T12:34:03.240Z,40.50
2018-07-31T12:36:31.679Z,40.60
2018-07-31T12:39:00.838Z,40.50
2018-07-31T12:41:29.357Z,40.30
2018-07-31T12:43:57.802Z,40.30
2018-07-31T12:46:26.187Z,40.10
2018-07-31T12:48:54.607Z,40.20
2018-07-31T12:51:23.031Z,40.10
2018-07-31T12:53:51.459Z,40.30
2018-07-31T12:56:19.892Z,40.30
2018-07-31T12:58:48.293Z,40.40
2018-07-31T13:01:16.719Z,40.20
2018-07-31T13:03:45.117Z,39.90
2018-07-31T13:06:13.629Z,39.80
2018-07-31T13:08:43.495Z,39.90
2018-07-31T13:11:13.477Z,40.10
2018-07-31T13:13:41.879Z,40.00
2018-07-31T13:16:10.320Z,40.00
2018-07-31T13:18:38.734Z,40.00
2018-07-31T13:21:09.021Z,39.90
2018-07-31T13:23:37.428Z,40.00
2018-07-31T13:26:05.893Z,40.10
2018-07-31T13:28:35.208Z,40.10
2018-07-31T13:31:03.624Z,39.80
2018-07-31T13:36:00.157Z,40.40
2018-07-31T13:38:28.588Z,40.40
2018-07-31T13:40:57.004Z,40.30
2018-07-31T13:43:25.480Z,40.10
2018-07-31T13:45:53.985Z,40.00
2018-07-31T13:48:22.423Z,40.00
2018-07-31T13:50:50.849Z,40.20
2018-07-31T13:53:20.367Z,39.90
2018-07-31T13:55:48.833Z,39.90
2018-07-31T13:58:19.389Z,40.00
2018-07-31T14:00:49.393Z,40.00
2018-07-31T14:03:18.108Z,40.20
2018-07-31T14:05:46.573Z,39.90
2018-07-31T14:08:15.131Z,39.60
2018-07-31T14:10:44.629Z,39.50
2018-07-31T14:13:14.268Z,39.10
2018-07-31T14:15:42.754Z,38.50
2018-07-31T14:18:11.212Z,37.80
2018-07-31T14:20:39.715Z,37.50
2018-07-31T14:23:08.092Z,37.40
2018-07-31T14:25:37.191Z,37.30
2018-07-31T14:28:05.602Z,37.00
2018-07-31T14:30:34.073Z,36.70
2018-07-31T14:33:02.424Z,36.80
2018-07-31T14:35:30.836Z,37.20
2018-07-31T14:37:59.225Z,37.50
2018-07-31T14:42:55.796Z,38.20
2018-07-31T14:47:52.360Z,38.80
2018-07-31T14:50:20.792Z,39.00
2018-07-31T14:52:49.188Z,39.00
2018-07-31T14:57:45.864Z,39.00
2018-07-31T15:00:14.435Z,39.00
2018-07-31T15:02:42.937Z,39.00
2018-07-31T15:05:11.392Z,38.90
2018-07-31T15:07:39.812Z,38.60
2018-07-31T15:10:08.724Z,38.40
2018-07-31T15:12:37.202Z,38.30
2018-07-31T15:15:05.687Z,38.30
2018-07-31T15:17:34.115Z,38.40
2018-07-31T15:20:02.607Z,38.60
2018-07-31T15:22:37.019Z,38.80
2018-07-31T15:25:05.559Z,39.00
2018-07-31T15:27:33.995Z,39.00
2018-07-31T15:30:02.424Z,38.90
2018-07-31T15:32:30.923Z,38.90
2018-07-31T15:34:59.332Z,38.80
2018-07-31T15:39:55.875Z,38.50
2018-07-31T15:42:24.321Z,38.50
2018-07-31T15:44:52.731Z,38.30
2018-07-31T15:47:21.195Z,38.00
2018-07-31T15:49:49.614Z,37.60
2018-07-31T15:52:18.083Z,37.50
2018-07-31T15:54:46.516Z,37.30
2018-07-31T15:57:14.960Z,37.10
2018-07-31T16:02:11.563Z,36.80
2018-07-31T16:04:39.992Z,36.60
2018-07-31T16:07:08.573Z,36.60
2018-07-31T16:09:37.008Z,36.70
2018-07-31T16:12:05.451Z,36.70
2018-07-31T16:14:33.880Z,36.80
2018-07-31T16:17:02.324Z,36.60
2018-07-31T16:19:30.754Z,36.50
2018-07-31T16:21:59.192Z,36.40
2018-07-31T16:24:27.643Z,36.30
2018-07-31T16:26:56.074Z,36.30
2018-07-31T16:29:24.508Z,36.20
2018-07-31T16:31:52.956Z,36.20
2018-07-31T16:34:21.376Z,36.20
2018-07-31T16:36:49.848Z,36.20
2018-07-31T16:39:18.264Z,36.10
2018-07-31T16:41:46.673Z,35.90
2018-07-31T16:44:15.095Z,35.80
2018-07-31T16:46:43.515Z,35.60
2018-07-31T16:49:11.968Z,35.50
2018-07-31T16:51:40.381Z,35.50
2018-07-31T16:54:08.827Z,35.50
2018-07-31T16:56:37.241Z,35.60
2018-07-31T16:59:05.651Z,35.60
2018-07-31T17:01:34.087Z,35.60
2018-07-31T17:04:02.500Z,35.50
2018-07-31T17:06:30.960Z,35.40
2018-07-31T17:09:00.125Z,35.40
2018-07-31T17:11:28.836Z,35.40
2018-07-31T17:13:57.228Z,35.20
2018-07-31T17:16:25.635Z,35.10
2018-07-31T17:18:54.031Z,35.00
2018-07-31T17:21:22.436Z,34.80
2018-07-31T17:23:50.823Z,34.60
2018-07-31T17:26:19.296Z,34.40
2018-07-31T17:28:47.687Z,34.30
2018-07-31T17:31:16.096Z,34.10
2018-07-31T17:33:44.494Z,34.10
2018-07-31T17:36:12.915Z,34.00
2018-07-31T17:38:41.313Z,33.90
2018-07-31T17:41:09.748Z,33.70
2018-07-31T17:43:38.147Z,33.60
2018-07-31T17:46:06.577Z,33.30
2018-07-31T17:48:35.064Z,33.00
2018-07-31T17:53:31.620Z,32.50
2018-07-31T17:56:00.015Z,32.30
2018-07-31T17:58:28.419Z,32.20
2018-07-31T18:00:56.826Z,32.20
2018-07-31T18:03:25.237Z,32.20
2018-07-31T18:05:53.773Z,32.20
2018-07-31T18:08:22.270Z,32.10
2018-07-31T18:10:50.758Z,32.20
2018-07-31T18:13:19.196Z,32.20
2018-07-31T18:15:47.627Z,32.00
2018-07-31T18:18:16.046Z,31.90
2018-07-31T18:20:44.462Z,31.80
2018-07-31T18:23:12.893Z,31.70
2018-07-31T18:25:41.296Z,31.60
2018-07-31T18:28:09.737Z,31.50
2018-07-31T18:30:38.202Z,31.40
2018-07-31T18:33:06.726Z,31.30
2018-07-31T18:35:35.276Z,31.20
2018-07-31T18:40:32.136Z,31.10
2018-07-31T18:43:00.560Z,30.90
2018-07-31T18:45:29.299Z,30.90
2018-07-31T18:50:25.869Z,31.00
2018-07-31T18:52:54.276Z,31.00
2018-07-31T18:55:22.708Z,31.00
2018-07-31T18:57:51.128Z,30.90
2018-07-31T19:00:19.567Z,30.90
2018-07-31T19:02:47.964Z,30.80
2018-07-31T19:07:44.512Z,30.70
2018-07-31T19:12:41.054Z,30.50
2018-07-31T19:15:09.511Z,30.40
2018-07-31T19:17:37.907Z,30.30
2018-07-31T19:20:06.848Z,30.20
2018-07-31T19:22:35.252Z,30.20
2018-07-31T19:25:03.713Z,30.10
2018-07-31T19:27:32.120Z,30.00
2018-07-31T19:30:00.577Z,29.90
2018-07-31T19:32:28.992Z,29.60
2018-07-31T19:34:57.408Z,29.30
2018-07-31T19:37:25.788Z,29.10
2018-07-31T19:39:54.240Z,28.90
2018-07-31T19:42:22.639Z,28.70
2018-07-31T19:44:51.078Z,28.60
2018-07-31T19:47:19.508Z,28.50
2018-07-31T19:49:47.932Z,28.40
2018-07-31T19:52:16.329Z,28.30
2018-07-31T19:54:44.715Z,28.20
2018-07-31T19:57:13.128Z,28.10
2018-07-31T19:59:41.502Z,27.90
2018-07-31T20:02:09.957Z,27.80
2018-07-31T20:04:38.361Z,27.60
2018-07-31T20:07:06.805Z,27.50
2018-07-31T20:09:35.199Z,27.30
2018-07-31T20:12:03.683Z,27.10
2018-07-31T20:14:32.108Z,27.00
2018-07-31T20:17:00.552Z,26.90
2018-07-31T20:19:28.967Z,26.80
2018-07-31T20:21:57.420Z,26.70
2018-07-31T20:24:25.855Z,26.70
2018-07-31T20:26:54.319Z,26.60
2018-07-31T20:29:22.726Z,26.60
2018-07-31T20:31:51.167Z,26.50
2018-07-31T20:34:19.568Z,26.40
2018-07-31T20:36:48.033Z,26.20
2018-07-31T20:39:16.482Z,26.00
2018-07-31T20:41:44.968Z,26.00
2018-07-31T20:44:13.404Z,25.90
2018-07-31T20:46:41.811Z,25.90
2018-07-31T20:49:10.374Z,25.80
2018-07-31T20:51:38.942Z,25.80
2018-07-31T20:54:07.403Z,25.90
2018-07-31T20:56:36.004Z,25.90
2018-07-31T20:59:04.438Z,25.80
2018-07-31T21:01:32.863Z,25.70
2018-07-31T21:04:01.288Z,25.40
2018-07-31T21:06:29.738Z,25.20
2018-07-31T21:08:58.188Z,25.10
2018-07-31T21:11:26.596Z,25.10
2018-07-31T21:13:55.005Z,25.00
2018-07-31T21:16:23.408Z,24.90
2018-07-31T21:18:51.844Z,24.70
2018-07-31T21:21:20.235Z,24.50
2018-07-31T21:23:48.639Z,24.40
2018-07-31T21:26:17.039Z,24.30
2018-07-31T21:28:45.444Z,24.40
2018-07-31T21:31:13.839Z,24.40
2018-07-31T21:33:42.249Z,24.40
2018-07-31T21:36:10.652Z,24.40
2018-07-31T21:38:39.065Z,24.40
2018-07-31T21:41:07.636Z,24.30
2018-07-31T21:43:36.028Z,24.30
2018-07-31T21:46:04.441Z,24.10
2018-07-31T21:48:32.828Z,23.80
2018-07-31T21:51:01.240Z,23.70
2018-07-31T21:53:29.663Z,23.60
2018-07-31T21:55:58.092Z,23.70
2018-07-31T21:58:26.480Z,23.60
2018-07-31T22:01:00.164Z,23.70
2018-07-31T22:03:28.561Z,23.70
2018-07-31T22:05:56.983Z,23.60
2018-07-31T22:08:25.383Z,23.40
2018-07-31T22:10:53.803Z,23.10
2018-07-31T22:13:22.184Z,23.00
2018-07-31T22:15:50.616Z,22.90
2018-07-31T22:18:19.049Z,22.90
2018-07-31T22:20:47.456Z,22.90
2018-07-31T22:23:15.860Z,23.00
2018-07-31T22:25:44.288Z,22.90
2018-07-31T22:28:12.677Z,22.70
2018-07-31T22:30:41.195Z,22.60
2018-07-31T22:33:09.691Z,22.60
2018-07-31T22:35:38.103Z,22.60
2018-07-31T22:38:06.869Z,22.70
2018-07-31T22:40:35.268Z,22.70
2018-07-31T22:43:03.703Z,22.60
2018-07-31T22:45:32.112Z,22.50
2018-07-31T22:48:00.525Z,22.50
2018-07-31T22:50:28.920Z,22.40
2018-07-31T22:52:57.332Z,22.40
2018-07-31T22:55:25.711Z,22.50
2018-07-31T22:57:54.124Z,22.60
2018-07-31T23:00:22.532Z,22.60
2018-07-31T23:02:50.947Z,22.70
2018-07-31T23:05:19.356Z,22.60
2018-07-31T23:07:47.768Z,22.40
2018-07-31T23:10:19.479Z,22.30
2018-07-31T23:12:49.031Z,22.30
2018-07-31T23:15:17.476Z,22.20
2018-07-31T23:17:46.806Z,22.10
2018-07-31T23:20:15.215Z,22.00
2018-07-31T23:22:50.520Z,21.80
2018-07-31T23:25:19.073Z,21.70
2018-07-31T23:27:47.515Z,21.60
2018-07-31T23:30:15.931Z,21.70
2018-07-31T23:35:12.559Z,21.80
2018-07-31T23:37:40.949Z,21.90
2018-07-31T23:40:09.383Z,22.10
2018-07-31T23:42:37.772Z,22.20
2018-07-31T23:45:06.211Z,22.30
2018-07-31T23:47:34.636Z,22.40
2018-07-31T23:50:03.087Z,22.40
2018-07-31T23:52:31.473Z,22.40
2018-07-31T23:54:59.879Z,22.30
2018-07-31T23:57:28.293Z,22.30
2018-07-31T23:59:56.708Z,22.30
